Boelus, Nebraska
Current Conditions -  °F | °C
As of 4:24 AM on Monday 22 Dec 2014 (Local Time) from KGRI Reporting Station
Haze Haze  
Wind Chill: 35°   Ceiling: 1400
Heat Index: 41°   Visibility: 6mi
Dew Point: 39°   Wind: 10mph
Humidity: 93%   Direction: 220°SW
Pressure: 29.5"   Gusts: NA
Location:  41.07°N, 98.72°W
Report Text: KGRI 221024Z AUTO 22009KT 6SM BR SCT008 BKN014 OVC023 05/04 A2950 RMK AO2 T00500039
Loading
Personal Weather Stations






























Interactive Weather Map New forecast layout! Learn more

10-Day Weather Forecast

Advertisements
Track Severe Weather on mobile